RMK weather

Renmark Airport
South Australia, Australia

Public forecast

Using degrees Celsius for public forecast. Weather courtesy of forecast.io.

Closest aviation weather report (METAR) to Renmark Airport

Closest report is Mildura Airport, 70.1 nm (129.9 km) E. Retrieved 2020/01/21 22:00 UTC (30 minutes ago):

YMIA 212200Z AUTO 02013KT 9999 // NCD 26/05 Q1004

Closest aviation forecast (TAF) to Renmark Airport

Closest forecast is Adelaide International Airport, 115.1 nm (213.1 km) WSW. Retrieved 2020/01/21 18:36 UTC (4 hours ago):

TAF YPAD 211734Z 2118/2300 35012KT CAVOK FM212300 25015G25KT 9999 FEW015 BKN025 FM220400 26018KT 9999 -SHRA BKN025 FM221200 29018KT 9999 -SHRA BKN025 INTER 2215/2223 5000 SHRA BKN020